createdAt,value
2019-02-06T00:01:21.608Z,27.87
2019-02-06T00:03:50.984Z,28.73
2019-02-06T00:06:20.593Z,28.40
2019-02-06T00:08:50.302Z,28.63
2019-02-06T00:11:19.645Z,28.93
2019-02-06T00:13:49.362Z,27.87
2019-02-06T00:16:19.693Z,28.97
2019-02-06T00:18:49.378Z,25.57
2019-02-06T00:21:20.613Z,28.20
2019-02-06T00:23:49.638Z,27.27
2019-02-06T00:26:18.986Z,27.07
2019-02-06T00:28:48.281Z,27.93
2019-02-06T00:31:17.622Z,27.60
2019-02-06T00:33:46.935Z,28.43
2019-02-06T00:36:16.719Z,28.10
2019-02-06T00:38:46.025Z,27.63
2019-02-06T00:41:15.369Z,27.23
2019-02-06T00:43:44.672Z,29.70
2019-02-06T00:46:14.022Z,28.27
2019-02-06T00:48:43.392Z,28.00
2019-02-06T00:51:13.705Z,27.43
2019-02-06T00:53:43.002Z,27.20
2019-02-06T00:56:12.350Z,28.57
2019-02-06T00:58:41.652Z,26.70
2019-02-06T01:01:11.002Z,26.43
2019-02-06T01:03:40.305Z,29.03
2019-02-06T01:06:09.651Z,27.57
2019-02-06T01:08:38.949Z,25.07
2019-02-06T01:11:08.296Z,27.93
2019-02-06T01:13:37.607Z,27.27
2019-02-06T01:16:06.947Z,26.60
2019-02-06T01:18:36.426Z,29.00
2019-02-06T01:21:06.733Z,27.83
2019-02-06T01:23:36.042Z,27.20
2019-02-06T01:26:05.589Z,27.47
2019-02-06T01:28:34.888Z,25.57
2019-02-06T01:31:04.706Z,27.73
2019-02-06T01:33:34.031Z,27.23
2019-02-06T01:36:03.371Z,27.57
2019-02-06T01:38:32.674Z,26.53
2019-02-06T01:41:02.428Z,27.83
2019-02-06T01:43:31.761Z,26.80
2019-02-06T01:46:01.109Z,28.13
2019-02-06T01:48:30.553Z,26.27
2019-02-06T01:50:59.857Z,27.73
2019-02-06T01:53:29.272Z,27.40
2019-02-06T01:55:59.109Z,27.13
2019-02-06T01:58:28.454Z,29.23
2019-02-06T02:00:57.775Z,27.83
2019-02-06T02:03:27.116Z,28.83
2019-02-06T02:06:02.271Z,28.63
2019-02-06T02:08:27.736Z,26.30
2019-02-06T02:10:57.034Z,27.13
2019-02-06T02:13:26.378Z,29.03
2019-02-06T02:15:55.681Z,28.23
2019-02-06T02:18:25.034Z,27.67
2019-02-06T02:20:54.409Z,26.53
2019-02-06T02:23:23.816Z,27.83
2019-02-06T02:25:53.167Z,27.93
2019-02-06T02:28:22.450Z,27.17
2019-02-06T02:30:52.617Z,28.47
2019-02-06T02:33:21.959Z,27.90
2019-02-06T02:35:51.256Z,25.53
2019-02-06T02:38:20.784Z,24.93
2019-02-06T02:40:50.331Z,26.93
2019-02-06T02:43:19.811Z,27.43
2019-02-06T02:45:50.150Z,27.47
2019-02-06T02:48:19.497Z,27.57
2019-02-06T02:50:48.794Z,25.77
2019-02-06T02:53:18.138Z,26.00
2019-02-06T02:55:47.561Z,25.23
2019-02-06T02:58:16.883Z,26.27
2019-02-06T03:00:47.827Z,27.17
2019-02-06T03:03:27.596Z,26.20
2019-02-06T03:05:56.894Z,27.43
2019-02-06T03:08:26.634Z,27.40
2019-02-06T03:10:55.934Z,27.73
2019-02-06T03:13:25.272Z,26.03
2019-02-06T03:15:54.586Z,24.53
2019-02-06T03:18:23.927Z,25.77
2019-02-06T03:20:53.225Z,25.30
2019-02-06T03:23:22.570Z,26.23
2019-02-06T03:25:51.882Z,27.27
2019-02-06T03:28:21.489Z,26.60
2019-02-06T03:30:50.806Z,26.37
2019-02-06T03:33:20.140Z,26.30
2019-02-06T03:35:49.516Z,28.33
2019-02-06T03:38:18.856Z,25.13
2019-02-06T03:40:48.152Z,26.03
2019-02-06T03:43:17.504Z,25.63
2019-02-06T03:45:46.802Z,26.63
2019-02-06T03:48:16.142Z,30.65
2019-02-06T03:50:45.445Z,27.10
2019-02-06T03:53:14.801Z,26.83
2019-02-06T03:55:44.117Z,27.30
2019-02-06T03:58:13.449Z,28.47
2019-02-06T04:00:42.786Z,27.10
2019-02-06T04:03:12.125Z,27.47
2019-02-06T04:05:41.460Z,29.83
2019-02-06T04:08:10.761Z,28.47
2019-02-06T04:10:40.309Z,28.97
2019-02-06T04:13:09.622Z,27.10
2019-02-06T04:15:38.957Z,28.03
2019-02-06T04:18:08.262Z,25.37
2019-02-06T04:20:37.605Z,26.87
2019-02-06T04:23:06.951Z,26.57
2019-02-06T04:25:36.588Z,25.93
2019-02-06T04:28:05.893Z,27.37
2019-02-06T04:30:35.240Z,27.73
2019-02-06T04:33:04.584Z,27.17
2019-02-06T04:35:33.922Z,27.27
2019-02-06T04:38:03.226Z,27.13
2019-02-06T04:40:32.870Z,28.00
2019-02-06T04:43:02.169Z,25.17
2019-02-06T04:45:31.518Z,26.57
2019-02-06T04:48:00.817Z,26.87
2019-02-06T04:50:30.153Z,25.73
2019-02-06T04:52:59.500Z,25.67
2019-02-06T04:55:29.145Z,26.93
2019-02-06T04:57:58.449Z,25.73
2019-02-06T05:00:28.258Z,27.00
2019-02-06T05:02:57.559Z,27.27
2019-02-06T05:05:26.901Z,27.97
2019-02-06T05:07:56.213Z,27.90
2019-02-06T05:10:26.925Z,26.37
2019-02-06T05:12:56.227Z,26.77
2019-02-06T05:15:25.569Z,25.33
2019-02-06T05:17:55.933Z,27.93
2019-02-06T05:20:28.699Z,25.90
2019-02-06T05:22:57.992Z,31.87
2019-02-06T05:25:27.735Z,27.70
2019-02-06T05:27:57.031Z,26.87
2019-02-06T05:30:26.374Z,26.33
2019-02-06T05:32:55.745Z,24.87
2019-02-06T05:35:25.080Z,26.00
2019-02-06T05:37:54.421Z,24.47
2019-02-06T05:40:24.073Z,27.40
2019-02-06T05:42:53.382Z,27.23
2019-02-06T05:45:22.720Z,27.77
2019-02-06T05:47:52.023Z,27.77
2019-02-06T05:50:21.381Z,27.30
2019-02-06T05:52:50.670Z,28.87
2019-02-06T05:55:20.032Z,30.57
2019-02-06T05:57:49.690Z,27.73
2019-02-06T06:00:25.372Z,28.73
2019-02-06T06:02:54.669Z,28.93
2019-02-06T06:05:24.017Z,25.33
2019-02-06T06:07:53.331Z,27.93
2019-02-06T06:10:22.682Z,30.07
2019-02-06T06:12:51.982Z,27.10
2019-02-06T06:15:21.402Z,27.93
2019-02-06T06:17:50.689Z,30.63
2019-02-06T06:20:20.442Z,27.93
2019-02-06T06:22:49.816Z,27.27
2019-02-06T06:25:20.123Z,27.67
2019-02-06T06:27:49.839Z,28.60
2019-02-06T06:30:20.400Z,30.07
2019-02-06T06:32:49.702Z,29.13
2019-02-06T06:35:19.044Z,28.13
2019-02-06T06:37:57.628Z,30.67
2019-02-06T06:40:23.563Z,29.97
2019-02-06T06:42:52.865Z,30.23
2019-02-06T06:45:25.357Z,30.23
2019-02-06T06:47:54.667Z,29.20
2019-02-06T06:50:25.054Z,28.10
2019-02-06T06:52:54.393Z,26.40
2019-02-06T06:55:24.001Z,26.57
2019-02-06T06:57:53.343Z,27.30
2019-02-06T07:00:24.781Z,25.30
2019-02-06T07:02:54.123Z,24.87
2019-02-06T07:05:23.430Z,27.17
2019-02-06T07:07:53.308Z,26.67
2019-02-06T07:10:22.908Z,27.37
2019-02-06T07:12:52.260Z,27.07
2019-02-06T07:15:24.812Z,26.43
2019-02-06T07:17:54.231Z,25.30
2019-02-06T07:20:23.528Z,24.90
2019-02-06T07:22:52.868Z,28.57
2019-02-06T07:25:22.472Z,26.90
2019-02-06T07:27:51.821Z,27.53
2019-02-06T07:30:34.710Z,27.80
2019-02-06T07:33:04.138Z,27.90
2019-02-06T07:35:33.644Z,29.67
2019-02-06T07:38:03.033Z,30.13
2019-02-06T07:40:32.345Z,26.77
2019-02-06T07:43:01.703Z,27.90
2019-02-06T07:45:31.000Z,28.13
2019-02-06T07:48:00.345Z,25.73
2019-02-06T07:50:31.594Z,26.67
2019-02-06T07:53:01.037Z,31.97
2019-02-06T07:55:30.349Z,26.50
2019-02-06T07:57:59.688Z,27.73
2019-02-06T08:00:29.003Z,24.73
2019-02-06T08:02:58.973Z,25.57
2019-02-06T08:05:28.276Z,24.13
2019-02-06T08:07:57.984Z,25.90
2019-02-06T08:10:32.541Z,25.10
2019-02-06T08:13:01.953Z,24.53
2019-02-06T08:15:31.320Z,24.30
2019-02-06T08:18:00.665Z,25.27
2019-02-06T08:20:30.139Z,23.70
2019-02-06T08:22:59.484Z,23.20
2019-02-06T08:25:28.785Z,24.63
2019-02-06T08:27:58.138Z,23.37
2019-02-06T08:30:29.694Z,23.17
2019-02-06T08:32:59.106Z,24.17
2019-02-06T08:35:28.415Z,23.87
2019-02-06T08:37:57.766Z,22.90
2019-02-06T08:40:31.025Z,23.83
2019-02-06T08:43:00.369Z,23.23
2019-02-06T08:45:30.744Z,28.97
2019-02-06T08:48:00.094Z,34.10
2019-02-06T08:50:29.697Z,31.07
2019-02-06T08:52:59.045Z,25.57
2019-02-06T08:55:30.942Z,23.23
2019-02-06T08:58:00.459Z,20.57
2019-02-06T09:00:31.156Z,20.57
2019-02-06T09:03:00.468Z,21.50
2019-02-06T09:05:29.973Z,21.50
2019-02-06T09:07:59.330Z,30.73
2019-02-06T09:10:30.068Z,25.63
2019-02-06T09:13:00.152Z,25.77
2019-02-06T09:15:29.467Z,20.70
2019-02-06T09:17:58.820Z,20.40
2019-02-06T09:20:29.156Z,19.43
2019-02-06T09:22:58.664Z,19.50
2019-02-06T09:25:29.116Z,18.77
2019-02-06T09:27:59.449Z,22.13
2019-02-06T09:30:33.784Z,89.10
2019-02-06T09:33:03.546Z,22.23
2019-02-06T09:35:32.845Z,17.70
2019-02-06T09:38:02.193Z,17.93
2019-02-06T09:40:31.874Z,19.13
2019-02-06T09:43:01.216Z,19.17
2019-02-06T09:45:30.520Z,18.90
2019-02-06T09:47:59.873Z,19.20
2019-02-06T09:50:31.511Z,22.23
2019-02-06T09:53:00.925Z,20.53
2019-02-06T09:55:30.257Z,17.27
2019-02-06T09:57:59.629Z,18.37
2019-02-06T10:00:31.286Z,19.50
2019-02-06T10:03:01.835Z,17.80
2019-02-06T10:05:31.169Z,17.50
2019-02-06T10:08:00.528Z,17.67
2019-02-06T10:10:30.020Z,19.07
2019-02-06T10:13:01.742Z,19.50
2019-02-06T10:15:35.157Z,17.60
2019-02-06T10:18:05.617Z,18.53
2019-02-06T10:20:40.465Z,17.20
2019-02-06T10:23:09.781Z,17.37
2019-02-06T10:25:39.159Z,17.80
2019-02-06T10:28:08.467Z,17.73
2019-02-06T10:30:40.358Z,16.50
2019-02-06T10:33:10.716Z,16.63
2019-02-06T10:35:40.073Z,17.50
2019-02-06T10:38:09.564Z,17.87
2019-02-06T10:40:38.976Z,16.20
2019-02-06T10:43:09.439Z,17.83
2019-02-06T10:45:39.130Z,18.97
2019-02-06T10:48:08.434Z,18.10
2019-02-06T10:50:38.724Z,17.30
2019-02-06T10:53:08.118Z,14.47
2019-02-06T10:55:37.505Z,16.43
2019-02-06T10:58:06.810Z,14.80
2019-02-06T11:00:50.767Z,16.30
2019-02-06T11:03:19.811Z,17.90
2019-02-06T11:05:49.277Z,24.13
2019-02-06T11:08:18.588Z,18.17
2019-02-06T11:10:47.934Z,19.43
2019-02-06T11:13:17.536Z,15.93
2019-02-06T11:15:46.887Z,16.63
2019-02-06T11:18:16.198Z,16.90
2019-02-06T11:20:45.545Z,20.73
2019-02-06T11:23:14.857Z,15.37
2019-02-06T11:25:44.207Z,17.87
2019-02-06T11:28:14.665Z,14.10
2019-02-06T11:30:44.016Z,13.43
2019-02-06T11:33:13.335Z,13.13
2019-02-06T11:35:42.749Z,14.07
2019-02-06T11:38:12.142Z,21.13
2019-02-06T11:40:41.490Z,15.03
2019-02-06T11:43:11.236Z,15.83
2019-02-06T11:45:40.593Z,15.50
2019-02-06T11:48:09.909Z,16.80
2019-02-06T11:50:42.825Z,13.33
2019-02-06T11:53:14.475Z,15.47
2019-02-06T11:55:43.828Z,17.43
2019-02-06T11:58:13.349Z,14.07
2019-02-06T12:00:49.858Z,14.90
2019-02-06T12:03:22.039Z,15.00
2019-02-06T12:05:50.187Z,14.17
2019-02-06T12:08:19.517Z,13.70
2019-02-06T12:10:49.250Z,13.63
2019-02-06T12:13:18.579Z,14.57
2019-02-06T12:15:47.949Z,13.20
2019-02-06T12:18:17.360Z,14.33
2019-02-06T12:20:46.705Z,13.40
2019-02-06T12:23:16.008Z,13.00
2019-02-06T12:25:45.765Z,12.57
2019-02-06T12:28:15.154Z,12.50
2019-02-06T12:30:44.524Z,13.27
2019-02-06T12:33:13.981Z,12.10
2019-02-06T12:35:43.349Z,12.83
2019-02-06T12:38:12.685Z,15.13
2019-02-06T12:40:42.081Z,13.80
2019-02-06T12:43:11.404Z,14.47
2019-02-06T12:45:40.765Z,12.40
2019-02-06T12:48:10.077Z,12.80
2019-02-06T12:50:39.441Z,14.10
2019-02-06T12:53:09.824Z,13.13
2019-02-06T12:55:40.417Z,13.03
2019-02-06T12:58:09.766Z,15.37
2019-02-06T13:00:41.736Z,13.17
2019-02-06T13:03:11.071Z,13.43
2019-02-06T13:05:40.412Z,13.23
2019-02-06T13:08:09.761Z,13.73
2019-02-06T13:10:38.853Z,12.83
2019-02-06T13:13:08.112Z,12.53
2019-02-06T13:15:37.611Z,15.00
2019-02-06T13:18:06.960Z,13.73
2019-02-06T13:20:36.625Z,13.53
2019-02-06T13:23:06.241Z,12.30
2019-02-06T13:25:35.545Z,12.90
2019-02-06T13:28:05.034Z,14.80
2019-02-06T13:30:36.903Z,14.93
2019-02-06T13:33:07.586Z,12.23
2019-02-06T13:35:37.326Z,12.97
2019-02-06T13:38:06.666Z,12.83
2019-02-06T13:40:45.061Z,13.27
2019-02-06T13:43:07.004Z,13.27
2019-02-06T13:45:39.481Z,13.80
2019-02-06T13:48:08.592Z,12.33
2019-02-06T13:50:37.805Z,12.97
2019-02-06T13:53:07.155Z,13.53
2019-02-06T13:55:37.531Z,14.80
2019-02-06T13:58:07.286Z,13.70
2019-02-06T14:00:39.393Z,11.80
2019-02-06T14:03:08.749Z,11.77
2019-02-06T14:05:38.125Z,12.57
2019-02-06T14:08:13.017Z,11.87
2019-02-06T14:10:42.328Z,12.07
2019-02-06T14:13:11.733Z,11.97
2019-02-06T14:15:45.993Z,13.07
2019-02-06T14:18:15.425Z,12.97
2019-02-06T14:20:45.576Z,12.47
2019-02-06T14:23:20.865Z,11.53
2019-02-06T14:26:05.128Z,12.40
2019-02-06T14:28:54.329Z,13.83
2019-02-06T14:31:45.001Z,12.43
2019-02-06T14:34:35.427Z,13.03
2019-02-06T14:37:19.721Z,13.43
2019-02-06T14:40:20.583Z,13.77
2019-02-06T14:43:08.127Z,13.17
2019-02-06T14:45:55.718Z,13.20
2019-02-06T14:48:28.386Z,12.50
2019-02-06T14:51:06.629Z,11.73
2019-02-06T14:53:39.481Z,13.53
2019-02-06T14:56:28.451Z,14.00
2019-02-06T14:59:27.313Z,13.33
2019-02-06T15:02:16.213Z,15.17
2019-02-06T15:05:08.336Z,14.60
2019-02-06T15:08:07.570Z,15.40
2019-02-06T15:10:40.185Z,15.33
2019-02-06T15:13:18.520Z,17.10
2019-02-06T15:16:13.353Z,16.73
2019-02-06T15:19:03.534Z,17.20
2019-02-06T15:21:52.373Z,17.00
2019-02-06T15:24:36.808Z,18.10
2019-02-06T15:27:21.263Z,18.83
2019-02-06T15:29:54.154Z,20.13
2019-02-06T15:32:41.468Z,19.30
2019-02-06T15:35:21.668Z,20.13
2019-02-06T15:38:00.578Z,20.70
2019-02-06T15:40:47.778Z,20.97
2019-02-06T15:43:32.139Z,21.87
2019-02-06T15:46:21.029Z,22.50
2019-02-06T15:49:05.373Z,23.13
2019-02-06T15:51:52.696Z,22.37
2019-02-06T15:54:38.820Z,22.63
2019-02-06T15:57:19.696Z,21.70
2019-02-06T16:00:00.940Z,24.07
2019-02-06T16:02:59.029Z,22.90
2019-02-06T16:05:52.455Z,25.90
2019-02-06T16:08:34.012Z,23.50
2019-02-06T16:11:26.804Z,28.73
2019-02-06T16:14:08.361Z,26.37
2019-02-06T16:17:01.591Z,25.40
2019-02-06T16:19:46.449Z,24.67
2019-02-06T16:22:44.079Z,22.90
2019-02-06T16:25:22.510Z,23.87
2019-02-06T16:27:57.849Z,24.10
2019-02-06T16:30:42.440Z,21.83
2019-02-06T16:33:17.773Z,23.33
2019-02-06T16:35:59.177Z,24.33
2019-02-06T16:38:46.633Z,23.03
2019-02-06T16:41:41.437Z,22.23
2019-02-06T16:44:13.994Z,24.03
2019-02-06T16:46:58.780Z,24.40
2019-02-06T16:49:40.079Z,29.60
2019-02-06T16:52:21.738Z,25.50
2019-02-06T16:55:08.952Z,27.87
2019-02-06T16:57:57.721Z,24.83
2019-02-06T17:00:37.581Z,25.57
2019-02-06T17:03:26.672Z,26.90
2019-02-06T17:06:07.889Z,29.47
2019-02-06T17:09:01.488Z,26.23
2019-02-06T17:11:38.165Z,31.10
2019-02-06T17:14:10.764Z,29.47
2019-02-06T17:16:43.323Z,28.07
2019-02-06T17:19:33.577Z,28.57
2019-02-06T17:22:21.073Z,29.60
2019-02-06T17:24:56.642Z,30.30
2019-02-06T17:27:31.973Z,32.67
2019-02-06T17:30:22.069Z,34.20
2019-02-06T17:33:06.409Z,31.73
2019-02-06T17:36:01.160Z,33.90
2019-02-06T17:38:36.697Z,32.43
2019-02-06T17:41:27.211Z,31.43
2019-02-06T17:44:08.792Z,32.57
2019-02-06T17:46:50.374Z,33.67
2019-02-06T17:49:29.656Z,32.10
2019-02-06T17:52:11.593Z,32.50
2019-02-06T17:54:44.148Z,31.97
2019-02-06T17:57:13.496Z,32.40
2019-02-06T17:59:42.878Z,33.30
2019-02-06T18:02:12.212Z,33.57
2019-02-06T18:04:41.616Z,31.20
2019-02-06T18:07:11.935Z,31.40
2019-02-06T18:09:41.233Z,32.47
2019-02-06T18:12:10.575Z,31.87
2019-02-06T18:14:39.876Z,31.63
2019-02-06T18:17:10.300Z,35.57
2019-02-06T18:19:39.602Z,32.97
2019-02-06T18:22:08.944Z,34.23
2019-02-06T18:24:38.240Z,33.73
2019-02-06T18:27:07.584Z,36.17
2019-02-06T18:29:36.881Z,32.17
2019-02-06T18:32:06.241Z,30.63
2019-02-06T18:34:35.649Z,33.17
2019-02-06T18:37:04.985Z,29.03
2019-02-06T18:39:34.336Z,31.63
2019-02-06T18:42:03.678Z,32.77
2019-02-06T18:44:33.029Z,29.83
2019-02-06T18:47:02.333Z,32.10
2019-02-06T18:49:31.753Z,28.90
2019-02-06T18:52:01.059Z,30.67
2019-02-06T18:54:30.397Z,31.10
2019-02-06T18:56:59.700Z,35.50
2019-02-06T18:59:29.471Z,44.50
2019-02-06T19:01:58.772Z,32.83
2019-02-06T19:04:28.193Z,33.80
2019-02-06T19:06:57.546Z,32.37
2019-02-06T19:09:28.955Z,31.63
2019-02-06T19:11:58.545Z,29.93
2019-02-06T19:14:27.989Z,31.53
2019-02-06T19:16:57.284Z,27.80
2019-02-06T19:19:26.828Z,35.10
2019-02-06T19:21:56.206Z,31.83
2019-02-06T19:24:25.562Z,33.63
2019-02-06T19:26:54.873Z,36.30
2019-02-06T19:29:25.059Z,37.00
2019-02-06T19:31:54.411Z,34.97
2019-02-06T19:34:23.757Z,36.00
2019-02-06T19:36:53.068Z,27.70
2019-02-06T19:39:22.420Z,35.33
2019-02-06T19:41:51.726Z,33.63
2019-02-06T19:44:21.144Z,37.23
2019-02-06T19:46:50.670Z,36.53
2019-02-06T19:49:19.993Z,36.10
2019-02-06T19:51:49.308Z,35.37
2019-02-06T19:54:18.652Z,36.57
2019-02-06T19:56:47.953Z,37.63
2019-02-06T19:59:17.289Z,32.27
2019-02-06T20:01:46.610Z,35.70
2019-02-06T20:04:16.551Z,36.37
2019-02-06T20:06:45.868Z,28.97
2019-02-06T20:09:15.272Z,35.60
2019-02-06T20:11:44.650Z,39.43
2019-02-06T20:14:13.992Z,37.90
2019-02-06T20:16:43.292Z,31.63
2019-02-06T20:19:13.856Z,36.67
2019-02-06T20:21:43.768Z,38.03
2019-02-06T20:24:13.150Z,30.90
2019-02-06T20:26:42.423Z,36.93
2019-02-06T20:29:11.781Z,35.60
2019-02-06T20:31:41.081Z,36.10
2019-02-06T20:34:10.497Z,48.17
2019-02-06T20:36:39.828Z,51.97
2019-02-06T20:39:09.190Z,39.23
2019-02-06T20:41:39.694Z,47.60
2019-02-06T20:44:09.044Z,54.27
2019-02-06T20:46:38.356Z,48.77
2019-02-06T20:49:08.080Z,38.43
2019-02-06T20:51:37.374Z,40.50
2019-02-06T20:54:06.733Z,40.97
2019-02-06T20:56:36.149Z,40.23
2019-02-06T20:59:05.928Z,40.87
2019-02-06T21:01:35.456Z,42.00
2019-02-06T21:04:06.460Z,42.27
2019-02-06T21:06:37.437Z,43.07
2019-02-06T21:09:09.836Z,38.63
2019-02-06T21:11:39.353Z,43.20
2019-02-06T21:14:08.654Z,43.07
2019-02-06T21:16:38.008Z,43.40
2019-02-06T21:19:07.324Z,41.27
2019-02-06T21:21:36.672Z,37.40
2019-02-06T21:24:05.985Z,41.93
2019-02-06T21:26:35.337Z,40.70
2019-02-06T21:29:04.641Z,40.70
2019-02-06T21:31:34.068Z,44.43
2019-02-06T21:34:05.824Z,41.60
2019-02-06T21:36:34.346Z,43.13
2019-02-06T21:39:05.318Z,44.10
2019-02-06T21:41:36.296Z,45.73
2019-02-06T21:44:05.640Z,37.93
2019-02-06T21:46:34.985Z,44.60
2019-02-06T21:49:04.293Z,40.47
2019-02-06T21:51:33.644Z,45.77
2019-02-06T21:54:03.283Z,44.47
2019-02-06T21:56:32.661Z,41.83
2019-02-06T21:59:01.968Z,34.53
2019-02-06T22:01:31.393Z,46.80
2019-02-06T22:04:00.711Z,42.63
2019-02-06T22:06:30.053Z,44.43
2019-02-06T22:08:59.565Z,46.90
2019-02-06T22:11:28.912Z,38.63
2019-02-06T22:13:58.550Z,42.57
2019-02-06T22:16:27.918Z,47.37
2019-02-06T22:18:57.229Z,50.07
2019-02-06T22:21:26.581Z,47.30
2019-02-06T22:23:56.097Z,45.67
2019-02-06T22:26:25.450Z,48.47
2019-02-06T22:28:54.753Z,50.87
2019-02-06T22:31:24.105Z,43.87
2019-02-06T22:33:53.417Z,46.90
2019-02-06T22:36:22.760Z,45.20
2019-02-06T22:38:52.549Z,42.27
2019-02-06T22:41:21.896Z,49.83
2019-02-06T22:43:51.206Z,45.73
2019-02-06T22:46:20.549Z,48.33
2019-02-06T22:48:49.857Z,47.10
2019-02-06T22:51:19.211Z,44.00
2019-02-06T22:53:48.713Z,44.20
2019-02-06T22:56:18.060Z,46.93
2019-02-06T22:58:47.373Z,41.70
2019-02-06T23:01:19.994Z,48.73
2019-02-06T23:03:49.372Z,40.70
2019-02-06T23:06:18.713Z,36.07
2019-02-06T23:08:48.050Z,46.77
2019-02-06T23:11:17.352Z,42.40
2019-02-06T23:13:46.711Z,46.33
2019-02-06T23:16:16.020Z,47.43
2019-02-06T23:18:46.345Z,48.70
2019-02-06T23:21:16.628Z,43.83
2019-02-06T23:23:45.973Z,48.27
2019-02-06T23:26:15.276Z,45.80
2019-02-06T23:28:44.620Z,44.03
2019-02-06T23:31:14.016Z,47.10
2019-02-06T23:33:43.614Z,47.07
2019-02-06T23:36:14.192Z,45.47
2019-02-06T23:38:43.545Z,38.30
2019-02-06T23:41:12.850Z,46.33
2019-02-06T23:43:42.207Z,48.07
2019-02-06T23:46:11.501Z,42.90
2019-02-06T23:48:40.840Z,43.63
2019-02-06T23:51:10.515Z,49.00
2019-02-06T23:53:39.861Z,46.63
2019-02-06T23:56:09.169Z,45.87
2019-02-06T23:58:38.522Z,46.03
